Greta — WDF3298 — position and weather

sailwx.info

Track history (hours):
 
Tides and Currents Weather Stations Pressure Air Temp Water Temp Dewpoint Dewpoint Depression Visibility Wind Speed Wind Dir Waves Ship Positions

Greta

Owner: General Electric Credit Corporation Of Tennessee, Seattle, WA. More information available from US FCC via Universal Licensing System and Coast Guard Vessel Documentation Center.

Last reported at 2014-Oct-08 03:28 UTC. Time now 2014-Oct-25 20:38 UTC.
Position N 47°33' W 122°20'.
Warning: this ship's position is 17 days out of date.

Length 44 m; draft 2 m.

Type: Ship. MMSI: 367438220.

Date/timePositionNaut miles runAvg speedWind from/ knotsBaromVisibWave heightAir tempDewpointWater temp
2014-Oct-08 03:28N 47°33' W 122°20'0 0.0
2014-Oct-08 03:25N 47°33' W 122°20'4 5.2
2014-Oct-08 02:33N 47°37' W 122°24'0 5.9
2014-Oct-08 02:30N 47°37' W 122°24'7 7.1
2014-Oct-08 01:33N 47°43' W 122°28'1 7.5
2014-Oct-08 01:29N 47°44' W 122°28'6 7.0
2014-Oct-08 00:34N 47°50' W 122°28'0 6.0
2014-Oct-08 00:30N 47°50' W 122°28'6 6.3
2014-Oct-07 23:33N 47°56' W 122°32'0 7.2
2014-Oct-07 23:29N 47°56' W 122°33'8 8.1
2014-Oct-07 22:33N 48°02' W 122°39'8 8.3
2014-Oct-07 21:32N 48°10' W 122°45'8 7.5
2014-Oct-07 20:28N 48°18' W 122°48'7 7.2
2014-Oct-07 19:33N 48°24' W 122°45'7 7.2
2014-Oct-07 18:33N 48°31' W 122°45'8 8.1
2014-Oct-07 17:33N 48°39' W 122°43'8 7.5
2014-Oct-07 16:33N 48°46' W 122°50'8 7.9
2014-Oct-07 15:34N 48°50' W 122°60'8 8.1
2014-Oct-07 14:33N 48°54' W 123°10'8 8.3
2014-Oct-07 13:34N 48°60' W 123°19'7 7.5
2014-Oct-07 12:33N 49°05' W 123°28'7 7.1
2014-Oct-07 11:33N 49°10' W 123°35'7 7.0
2014-Oct-07 10:33N 49°15' W 123°43'7 6.9
2014-Oct-07 09:33N 49°19' W 123°51'7 6.9
2014-Oct-07 08:33N 49°24' W 123°60'7 7.3
2014-Oct-07 07:33N 49°28' W 124°08'7 7.3
2014-Oct-07 06:33N 49°33' W 124°17'7 7.0
2014-Oct-07 05:33N 49°36' W 124°26'7 7.2
2014-Oct-07 04:33N 49°41' W 124°35'7 6.9
2014-Oct-07 03:32N 49°45' W 124°44'7 7.1
2014-Oct-07 02:33N 49°49' W 124°52'7 7.2
2014-Oct-07 01:31N 49°54' W 125°01'8 7.4
2014-Oct-07 00:29N 49°59' W 125°11'6 6.4
2014-Oct-06 23:32N 50°04' W 125°15'9 8.5
2014-Oct-06 22:27N 50°12' W 125°22'48 7.7
2014-Oct-06 16:12N 50°30' W 126°32'5 6.6
2014-Oct-06 15:31N 50°31' W 126°39'5 5.4
2014-Oct-06 14:32N 50°36' W 126°44'3 2.6
2014-Oct-06 13:33N 50°37' W 126°47'9 7.3
2014-Oct-06 12:16N 50°44' W 126°58'5 7.2
2014-Oct-06 11:33N 50°47' W 127°04'7 6.8
2014-Oct-06 10:33N 50°50' W 127°13'7 7.2
2014-Oct-06 09:33N 50°54' W 127°23'7 6.9
2014-Oct-06 08:34N 50°58' W 127°31'8 7.5
2014-Oct-06 07:33N 51°04' W 127°40'7 7.4
2014-Oct-06 06:34N 51°08' W 127°49'20 6.5
2014-Oct-06 03:33N 51°28' W 127°51'  
2014-Oct-02 12:33N 58°15' W 135°36'8 7.7
2014-Oct-02 11:33N 58°19' W 135°49'9 8.8
2014-Oct-02 10:33N 58°20' W 136°06'  
Track history (hours):
 
Tides and Currents Weather Stations Pressure Air Temp Water Temp Dewpoint Dewpoint Depression Visibility Wind Speed Wind Dir Waves Ship Positions

Greta

Owner: General Electric Credit Corporation Of Tennessee, Seattle, WA. More information available from US FCC via Universal Licensing System and Coast Guard Vessel Documentation Center.

Last reported at 2014-Oct-08 03:28 UTC. Time now 2014-Oct-25 20:38 UTC.
Position N 47°33' W 122°20'.
Warning: this ship's position is 17 days out of date.

Length 44 m; draft 2 m.

Type: Ship. MMSI: 367438220.

Date/timePositionNaut miles runAvg speedWind from/ knotsBaromVisibWave heightAir tempDewpointWater temp
2014-Oct-08 03:28N 47°33' W 122°20'0 0.0
2014-Oct-08 03:25N 47°33' W 122°20'4 5.2
2014-Oct-08 02:33N 47°37' W 122°24'0 5.9
2014-Oct-08 02:30N 47°37' W 122°24'7 7.1
2014-Oct-08 01:33N 47°43' W 122°28'1 7.5
2014-Oct-08 01:29N 47°44' W 122°28'6 7.0
2014-Oct-08 00:34N 47°50' W 122°28'0 6.0
2014-Oct-08 00:30N 47°50' W 122°28'6 6.3
2014-Oct-07 23:33N 47°56' W 122°32'0 7.2
2014-Oct-07 23:29N 47°56' W 122°33'8 8.1
2014-Oct-07 22:33N 48°02' W 122°39'8 8.3
2014-Oct-07 21:32N 48°10' W 122°45'8 7.5
2014-Oct-07 20:28N 48°18' W 122°48'7 7.2
2014-Oct-07 19:33N 48°24' W 122°45'7 7.2
2014-Oct-07 18:33N 48°31' W 122°45'8 8.1
2014-Oct-07 17:33N 48°39' W 122°43'8 7.5
2014-Oct-07 16:33N 48°46' W 122°50'8 7.9
2014-Oct-07 15:34N 48°50' W 122°60'8 8.1
2014-Oct-07 14:33N 48°54' W 123°10'8 8.3
2014-Oct-07 13:34N 48°60' W 123°19'7 7.5
2014-Oct-07 12:33N 49°05' W 123°28'7 7.1
2014-Oct-07 11:33N 49°10' W 123°35'7 7.0
2014-Oct-07 10:33N 49°15' W 123°43'7 6.9
2014-Oct-07 09:33N 49°19' W 123°51'7 6.9
2014-Oct-07 08:33N 49°24' W 123°60'7 7.3
2014-Oct-07 07:33N 49°28' W 124°08'7 7.3
2014-Oct-07 06:33N 49°33' W 124°17'7 7.0
2014-Oct-07 05:33N 49°36' W 124°26'7 7.2
2014-Oct-07 04:33N 49°41' W 124°35'7 6.9
2014-Oct-07 03:32N 49°45' W 124°44'7 7.1
2014-Oct-07 02:33N 49°49' W 124°52'7 7.2
2014-Oct-07 01:31N 49°54' W 125°01'8 7.4
2014-Oct-07 00:29N 49°59' W 125°11'6 6.4
2014-Oct-06 23:32N 50°04' W 125°15'9 8.5
2014-Oct-06 22:27N 50°12' W 125°22'48 7.7
2014-Oct-06 16:12N 50°30' W 126°32'5 6.6
2014-Oct-06 15:31N 50°31' W 126°39'5 5.4
2014-Oct-06 14:32N 50°36' W 126°44'3 2.6
2014-Oct-06 13:33N 50°37' W 126°47'9 7.3
2014-Oct-06 12:16N 50°44' W 126°58'5 7.2
2014-Oct-06 11:33N 50°47' W 127°04'7 6.8
2014-Oct-06 10:33N 50°50' W 127°13'7 7.2
2014-Oct-06 09:33N 50°54' W 127°23'7 6.9
2014-Oct-06 08:34N 50°58' W 127°31'8 7.5
2014-Oct-06 07:33N 51°04' W 127°40'7 7.4
2014-Oct-06 06:34N 51°08' W 127°49'20 6.5
2014-Oct-06 03:33N 51°28' W 127°51'  
2014-Oct-02 12:33N 58°15' W 135°36'8 7.7
2014-Oct-02 11:33N 58°19' W 135°49'9 8.8
2014-Oct-02 10:33N 58°20' W 136°06'  

Dump ship's entire track history